createdAt,value
2023-05-20T00:02:21.053Z,84.17
2023-05-20T00:04:49.727Z,84.66
2023-05-20T00:07:16.974Z,85.55
2023-05-20T00:09:45.158Z,84.49
2023-05-20T00:12:12.374Z,85.45
2023-05-20T00:14:39.684Z,86.11
2023-05-20T00:17:06.867Z,86.75
2023-05-20T00:19:34.130Z,86.48
2023-05-20T00:22:02.874Z,87.58
2023-05-20T00:24:30.079Z,87.32
2023-05-20T00:26:57.302Z,88.13
2023-05-20T00:29:24.601Z,88.87
2023-05-20T00:31:51.832Z,88.95
2023-05-20T00:34:19.790Z,88.62
2023-05-20T00:36:47.010Z,89.37
2023-05-20T00:39:15.580Z,90.31
2023-05-20T00:41:42.831Z,90.65
2023-05-20T00:44:10.078Z,90.50
2023-05-20T00:46:37.430Z,90.71
2023-05-20T00:49:05.043Z,90.40
2023-05-20T00:51:33.367Z,90.87
2023-05-20T00:54:00.727Z,91.46
2023-05-20T00:56:29.562Z,92.01
2023-05-20T00:58:57.752Z,92.21
2023-05-20T01:01:25.043Z,91.58
2023-05-20T01:03:52.473Z,92.34
2023-05-20T01:06:19.728Z,93.08
2023-05-20T01:08:47.041Z,94.39
2023-05-20T01:11:19.691Z,94.61
2023-05-20T01:13:54.202Z,93.89
2023-05-20T01:16:24.255Z,93.51
2023-05-20T01:18:55.300Z,93.49
2023-05-20T01:21:23.092Z,92.66
2023-05-20T01:23:51.714Z,92.99
2023-05-20T01:26:19.069Z,92.05
2023-05-20T01:28:46.744Z,91.96
2023-05-20T01:31:18.164Z,90.67
2023-05-20T01:33:49.414Z,89.93
2023-05-20T01:36:17.358Z,89.38
2023-05-20T01:38:46.163Z,89.04
2023-05-20T01:41:15.074Z,89.08
2023-05-20T01:43:44.117Z,89.84
2023-05-20T01:46:11.463Z,89.36
2023-05-20T01:48:38.678Z,89.66
2023-05-20T01:51:06.089Z,89.48
2023-05-20T01:53:33.556Z,89.40
2023-05-20T01:56:00.770Z,89.10
2023-05-20T01:58:29.680Z,88.85
2023-05-20T02:00:56.960Z,88.99
2023-05-20T02:03:24.256Z,88.93
2023-05-20T02:05:51.611Z,88.55
2023-05-20T02:08:18.895Z,88.39
2023-05-20T02:10:48.094Z,88.32
2023-05-20T02:13:15.300Z,87.93
2023-05-20T02:15:44.114Z,88.41
2023-05-20T02:18:11.354Z,88.41
2023-05-20T02:20:38.644Z,87.96
2023-05-20T02:23:05.870Z,88.10
2023-05-20T02:25:33.508Z,87.54
2023-05-20T02:28:00.918Z,87.50
2023-05-20T02:30:28.458Z,86.77
2023-05-20T02:32:58.557Z,85.70
2023-05-20T02:35:25.908Z,85.49
2023-05-20T02:37:53.403Z,85.27
2023-05-20T02:40:20.908Z,85.11
2023-05-20T02:42:48.172Z,84.39
2023-05-20T02:45:15.616Z,84.23
2023-05-20T02:47:43.067Z,83.71
2023-05-20T02:50:11.889Z,83.77
2023-05-20T02:52:39.176Z,83.49
2023-05-20T02:55:07.176Z,83.40
2023-05-20T02:57:34.782Z,83.38
2023-05-20T03:00:02.052Z,83.30
2023-05-20T03:02:29.268Z,83.24
2023-05-20T03:04:56.541Z,83.02
2023-05-20T03:07:25.291Z,82.95
2023-05-20T03:09:52.541Z,82.87
2023-05-20T03:12:19.795Z,82.99
2023-05-20T03:14:47.030Z,82.54
2023-05-20T03:17:14.288Z,82.68
2023-05-20T03:19:41.505Z,82.92
2023-05-20T03:22:08.924Z,83.03
2023-05-20T03:24:37.808Z,82.89
2023-05-20T03:27:06.144Z,82.74
2023-05-20T03:29:35.255Z,83.20
2023-05-20T03:32:03.057Z,82.88
2023-05-20T03:34:30.961Z,82.86
2023-05-20T03:36:58.859Z,82.87
2023-05-20T03:39:26.128Z,83.02
2023-05-20T03:41:54.703Z,82.97
2023-05-20T03:44:21.916Z,83.03
2023-05-20T03:46:49.611Z,83.24
2023-05-20T03:49:17.058Z,83.07
2023-05-20T03:51:44.689Z,83.15
2023-05-20T03:54:13.305Z,83.09
2023-05-20T03:56:41.293Z,82.75
2023-05-20T03:59:10.012Z,82.93
2023-05-20T04:01:37.282Z,82.93
2023-05-20T04:04:04.911Z,82.86
2023-05-20T04:06:32.590Z,82.82
2023-05-20T04:09:00.782Z,82.99
2023-05-20T04:11:27.978Z,82.58
2023-05-20T04:13:55.340Z,82.86
2023-05-20T04:16:24.738Z,82.60
2023-05-20T04:18:52.119Z,82.68
2023-05-20T04:21:19.667Z,82.60
2023-05-20T04:23:47.283Z,82.43
2023-05-20T04:26:14.544Z,82.76
2023-05-20T04:28:41.748Z,82.16
2023-05-20T04:31:09.036Z,82.44
2023-05-20T04:33:38.381Z,82.79
2023-05-20T04:36:07.705Z,82.65
2023-05-20T04:38:35.517Z,82.21
2023-05-20T04:41:02.843Z,82.10
2023-05-20T04:43:30.536Z,82.25
2023-05-20T04:45:59.498Z,82.04
2023-05-20T04:48:27.332Z,82.03
2023-05-20T04:50:55.954Z,81.88
2023-05-20T04:53:23.255Z,82.20
2023-05-20T04:55:54.187Z,81.97
2023-05-20T04:58:21.752Z,81.69
2023-05-20T05:00:48.980Z,81.75
2023-05-20T05:03:16.236Z,81.35
2023-05-20T05:05:43.792Z,81.73
2023-05-20T05:08:12.407Z,81.61
2023-05-20T05:10:45.287Z,81.46
2023-05-20T05:13:12.537Z,80.85
2023-05-20T05:15:39.827Z,81.37
2023-05-20T05:18:07.229Z,80.81
2023-05-20T05:20:35.938Z,80.77
2023-05-20T05:23:03.101Z,80.99
2023-05-20T05:25:31.918Z,81.00
2023-05-20T05:28:00.399Z,80.68
2023-05-20T05:30:27.712Z,81.21
2023-05-20T05:32:55.085Z,80.74
2023-05-20T05:35:23.135Z,80.56
2023-05-20T05:37:51.079Z,80.63
2023-05-20T05:40:19.074Z,80.91
2023-05-20T05:42:48.299Z,80.74
2023-05-20T05:45:15.757Z,80.54
2023-05-20T05:47:43.146Z,80.37
2023-05-20T05:50:10.668Z,80.11
2023-05-20T05:52:38.418Z,80.33
2023-05-20T05:55:10.260Z,80.10
2023-05-20T05:57:37.531Z,79.95
2023-05-20T06:00:07.618Z,79.41
2023-05-20T06:02:45.562Z,78.49
2023-05-20T06:05:17.795Z,79.03
2023-05-20T06:07:46.099Z,78.98
2023-05-20T06:10:13.607Z,78.48
2023-05-20T06:12:40.877Z,78.40
2023-05-20T06:15:10.739Z,78.78
2023-05-20T06:17:38.669Z,78.31
2023-05-20T06:20:07.328Z,77.29
2023-05-20T06:22:35.255Z,76.04
2023-05-20T06:25:02.747Z,75.09
2023-05-20T06:27:31.534Z,74.74
2023-05-20T06:29:58.765Z,75.04
2023-05-20T06:32:27.415Z,74.74
2023-05-20T06:34:56.666Z,73.31
2023-05-20T06:37:24.038Z,72.73
2023-05-20T06:39:52.866Z,72.29
2023-05-20T06:42:21.072Z,72.10
2023-05-20T06:45:02.266Z,71.71
2023-05-20T06:47:53.880Z,70.81
2023-05-20T06:50:21.215Z,69.53
2023-05-20T06:52:48.479Z,69.55
2023-05-20T06:55:16.523Z,69.85
2023-05-20T06:57:43.805Z,69.60
2023-05-20T07:00:12.600Z,70.21
2023-05-20T07:02:42.254Z,69.64
2023-05-20T07:05:12.413Z,69.73
2023-05-20T07:07:39.929Z,68.26
2023-05-20T07:10:08.564Z,67.96
2023-05-20T07:12:36.973Z,66.44
2023-05-20T07:15:05.389Z,66.93
2023-05-20T07:17:33.856Z,67.44
2023-05-20T07:20:01.191Z,67.46
2023-05-20T07:22:31.429Z,66.97
2023-05-20T07:25:17.117Z,66.62
2023-05-20T07:27:44.375Z,66.61
2023-05-20T07:30:12.128Z,67.66
2023-05-20T07:32:41.166Z,68.13
2023-05-20T07:35:09.518Z,68.34
2023-05-20T07:37:38.209Z,68.07
2023-05-20T07:40:07.760Z,67.04
2023-05-20T07:42:35.298Z,66.16
2023-05-20T07:45:02.663Z,65.88
2023-05-20T07:47:31.382Z,64.44
2023-05-20T07:49:58.685Z,63.94
2023-05-20T07:52:26.117Z,62.38
2023-05-20T07:54:54.787Z,62.84
2023-05-20T07:57:22.747Z,62.49
2023-05-20T07:59:50.078Z,64.84
2023-05-20T08:02:17.678Z,65.86
2023-05-20T08:04:45.672Z,67.04
2023-05-20T08:07:14.189Z,68.39
2023-05-20T08:09:49.129Z,67.68
2023-05-20T08:12:18.278Z,68.38
2023-05-20T08:14:45.814Z,68.77
2023-05-20T08:17:13.220Z,68.13
2023-05-20T08:19:40.629Z,69.38
2023-05-20T08:22:07.903Z,66.73
2023-05-20T08:24:35.549Z,66.53
2023-05-20T08:27:02.764Z,67.21
2023-05-20T08:29:31.353Z,66.75
2023-05-20T08:31:59.825Z,66.45
2023-05-20T08:34:27.857Z,68.06
2023-05-20T08:36:55.114Z,68.59
2023-05-20T08:39:22.336Z,68.09
2023-05-20T08:41:50.799Z,68.96
2023-05-20T08:44:20.290Z,67.00
2023-05-20T08:46:49.617Z,64.32
2023-05-20T08:49:17.089Z,66.11
2023-05-20T08:51:44.307Z,66.53
2023-05-20T08:54:13.311Z,65.35
2023-05-20T08:56:41.092Z,63.94
2023-05-20T08:59:08.881Z,65.11
2023-05-20T09:01:41.677Z,65.19
2023-05-20T09:04:10.482Z,65.49
2023-05-20T09:06:44.540Z,64.41
2023-05-20T09:09:12.228Z,62.09
2023-05-20T09:11:39.678Z,63.68
2023-05-20T09:14:07.253Z,61.77
2023-05-20T09:16:34.982Z,62.32
2023-05-20T09:19:02.470Z,61.96
2023-05-20T09:21:31.073Z,62.00
2023-05-20T09:24:01.768Z,61.92
2023-05-20T09:26:29.280Z,63.57
2023-05-20T09:28:56.836Z,63.43
2023-05-20T09:31:26.848Z,62.29
2023-05-20T09:33:55.325Z,62.72
2023-05-20T09:36:23.529Z,61.49
2023-05-20T09:38:53.179Z,63.00
2023-05-20T09:41:24.063Z,65.39
2023-05-20T09:43:53.499Z,66.85
2023-05-20T09:46:20.935Z,64.64
2023-05-20T09:48:48.651Z,64.66
2023-05-20T09:51:16.835Z,63.86
2023-05-20T09:53:44.233Z,64.47
2023-05-20T09:56:12.934Z,65.30
2023-05-20T09:58:42.233Z,64.72
2023-05-20T10:01:09.458Z,63.93
2023-05-20T10:03:37.184Z,64.42
2023-05-20T10:06:26.203Z,65.62
2023-05-20T10:09:14.596Z,64.18
2023-05-20T10:11:51.026Z,62.18
2023-05-20T10:14:33.656Z,63.94
2023-05-20T10:17:07.533Z,64.17
2023-05-20T10:19:34.872Z,62.14
2023-05-20T10:22:03.728Z,62.72
2023-05-20T10:24:32.553Z,62.58
2023-05-20T10:27:04.944Z,62.94
2023-05-20T10:29:43.555Z,63.30
2023-05-20T10:32:10.838Z,62.07
2023-05-20T10:34:46.493Z,62.06
2023-05-20T10:37:23.521Z,63.62
2023-05-20T10:39:50.759Z,61.67
2023-05-20T10:42:28.349Z,61.18
2023-05-20T10:44:55.573Z,62.44
2023-05-20T10:47:25.767Z,59.64
2023-05-20T10:49:53.662Z,60.04
2023-05-20T10:52:21.443Z,61.64
2023-05-20T10:54:56.019Z,62.17
2023-05-20T10:57:26.686Z,63.17
2023-05-20T10:59:54.773Z,63.01
2023-05-20T11:02:22.379Z,61.55
2023-05-20T11:04:49.878Z,61.49
2023-05-20T11:07:25.139Z,59.00
2023-05-20T11:09:52.343Z,61.37
2023-05-20T11:12:19.582Z,61.31
2023-05-20T11:14:49.465Z,61.05
2023-05-20T11:17:16.869Z,60.97
2023-05-20T11:19:44.123Z,62.22
2023-05-20T11:22:11.357Z,61.43
2023-05-20T11:24:38.605Z,62.15
2023-05-20T11:27:06.993Z,61.34
2023-05-20T11:29:34.231Z,60.79
2023-05-20T11:32:02.907Z,60.79
2023-05-20T11:34:35.506Z,60.58
2023-05-20T11:37:02.765Z,61.65
2023-05-20T11:39:30.407Z,61.27
2023-05-20T11:41:58.118Z,61.94
2023-05-20T11:44:26.003Z,61.60
2023-05-20T11:47:00.189Z,61.94
2023-05-20T11:49:28.844Z,61.92
2023-05-20T11:51:56.683Z,62.71
2023-05-20T11:54:24.805Z,61.41
2023-05-20T11:56:54.216Z,61.72
2023-05-20T11:59:23.977Z,63.03
2023-05-20T12:01:51.239Z,64.11
2023-05-20T12:04:18.779Z,64.16
2023-05-20T12:06:47.750Z,63.92
2023-05-20T12:09:15.020Z,63.48
2023-05-20T12:11:42.431Z,63.24
2023-05-20T12:14:09.962Z,63.39
2023-05-20T12:16:38.063Z,63.32
2023-05-20T12:19:05.565Z,63.62
2023-05-20T12:21:32.814Z,63.71
2023-05-20T12:24:01.515Z,63.47
2023-05-20T12:26:29.696Z,62.82
2023-05-20T12:28:57.541Z,62.62
2023-05-20T12:31:25.441Z,62.74
2023-05-20T12:33:52.812Z,63.54
2023-05-20T12:36:20.135Z,63.57
2023-05-20T12:38:47.423Z,63.64
2023-05-20T12:41:16.026Z,63.84
2023-05-20T12:43:43.238Z,63.61
2023-05-20T12:46:10.559Z,62.09
2023-05-20T12:48:38.176Z,62.34
2023-05-20T12:51:05.934Z,62.35
2023-05-20T12:53:33.169Z,61.30
2023-05-20T12:56:00.440Z,60.59
2023-05-20T12:58:29.006Z,60.12
2023-05-20T13:00:56.268Z,60.56
2023-05-20T13:03:23.485Z,61.38
2023-05-20T13:05:50.715Z,61.65
2023-05-20T13:08:17.937Z,61.53
2023-05-20T13:10:45.146Z,62.73
2023-05-20T13:13:12.413Z,61.39
2023-05-20T13:15:40.970Z,62.26
2023-05-20T13:18:08.233Z,62.48
2023-05-20T13:20:35.688Z,62.70
2023-05-20T13:23:03.156Z,62.41
2023-05-20T13:25:30.362Z,63.85
2023-05-20T13:27:57.583Z,63.47
2023-05-20T13:30:24.996Z,62.79
2023-05-20T13:32:53.643Z,62.96
2023-05-20T13:35:21.194Z,61.64
2023-05-20T13:37:48.425Z,61.71
2023-05-20T13:40:15.674Z,61.94
2023-05-20T13:42:42.998Z,62.01
2023-05-20T13:45:11.143Z,62.66
2023-05-20T13:47:38.331Z,63.41
2023-05-20T13:50:08.914Z,63.28
2023-05-20T13:52:36.145Z,61.64
2023-05-20T13:55:03.838Z,62.03
2023-05-20T13:57:31.039Z,62.80
2023-05-20T13:59:58.289Z,62.26
2023-05-20T14:02:25.629Z,62.48
2023-05-20T14:04:52.969Z,62.54
2023-05-20T14:07:21.596Z,62.72
2023-05-20T14:09:48.846Z,62.65
2023-05-20T14:12:16.140Z,63.99
2023-05-20T14:14:43.334Z,63.29
2023-05-20T14:17:10.572Z,62.19
2023-05-20T14:19:37.843Z,63.48
2023-05-20T14:22:05.129Z,62.66
2023-05-20T14:24:33.708Z,61.84
2023-05-20T14:27:00.910Z,61.96
2023-05-20T14:29:28.104Z,61.09
2023-05-20T14:31:55.429Z,61.23
2023-05-20T14:34:22.756Z,60.29
2023-05-20T14:36:49.959Z,59.95
2023-05-20T14:39:17.235Z,58.89
2023-05-20T14:41:45.810Z,56.34
2023-05-20T14:44:13.110Z,57.92
2023-05-20T14:46:40.459Z,58.54
2023-05-20T14:49:07.759Z,58.15
2023-05-20T14:51:34.955Z,57.32
2023-05-20T14:54:02.259Z,57.00
2023-05-20T14:56:29.661Z,57.24
2023-05-20T14:58:58.281Z,56.94
2023-05-20T15:01:25.657Z,56.77
2023-05-20T15:03:52.921Z,57.24
2023-05-20T15:06:20.212Z,59.79
2023-05-20T15:08:47.452Z,59.26
2023-05-20T15:11:14.710Z,59.24
2023-05-20T15:13:50.080Z,58.57
2023-05-20T15:16:17.516Z,57.59
2023-05-20T15:18:44.839Z,59.24
2023-05-20T15:21:12.119Z,59.36
2023-05-20T15:23:39.333Z,57.56
2023-05-20T15:26:06.628Z,59.12
2023-05-20T15:28:33.868Z,58.48
2023-05-20T15:31:02.420Z,58.48
2023-05-20T15:33:29.699Z,56.93
2023-05-20T15:35:56.952Z,55.02
2023-05-20T15:38:24.306Z,55.96
2023-05-20T15:40:51.526Z,57.04
2023-05-20T15:43:19.467Z,57.99
2023-05-20T15:45:46.732Z,56.56
2023-05-20T15:48:15.916Z,57.97
2023-05-20T15:50:43.164Z,57.56
2023-05-20T15:53:10.379Z,59.08
2023-05-20T15:55:37.689Z,60.63
2023-05-20T15:58:04.919Z,59.12
2023-05-20T16:00:32.465Z,60.67
2023-05-20T16:02:59.842Z,60.38
2023-05-20T16:05:28.483Z,61.58
2023-05-20T16:07:55.690Z,61.90
2023-05-20T16:10:25.330Z,61.61
2023-05-20T16:12:53.308Z,63.10
2023-05-20T16:15:20.524Z,63.04
2023-05-20T16:17:47.744Z,64.07
2023-05-20T16:20:15.004Z,64.80
2023-05-20T16:22:43.664Z,64.69
2023-05-20T16:25:10.987Z,65.11
2023-05-20T16:27:38.229Z,65.89
2023-05-20T16:30:07.666Z,65.83
2023-05-20T16:32:34.936Z,65.30
2023-05-20T16:35:02.353Z,65.45
2023-05-20T16:37:29.656Z,66.12
2023-05-20T16:39:58.225Z,66.17
2023-05-20T16:42:25.444Z,66.26
2023-05-20T16:44:52.641Z,66.84
2023-05-20T16:47:19.858Z,66.82
2023-05-20T16:49:47.071Z,67.10
2023-05-20T16:52:14.452Z,67.22
2023-05-20T16:54:41.669Z,67.43
2023-05-20T16:57:10.275Z,67.32
2023-05-20T16:59:37.450Z,67.98
2023-05-20T17:02:04.903Z,68.25
2023-05-20T17:04:32.099Z,68.52
2023-05-20T17:06:59.276Z,68.68
2023-05-20T17:09:26.477Z,69.34
2023-05-20T17:11:53.668Z,69.02
2023-05-20T17:14:22.226Z,69.49
2023-05-20T17:16:49.512Z,70.04
2023-05-20T17:19:16.814Z,70.54
2023-05-20T17:21:44.016Z,70.83
2023-05-20T17:24:11.251Z,70.62
2023-05-20T17:26:38.523Z,70.86
2023-05-20T17:29:05.748Z,71.49
2023-05-20T17:31:34.313Z,72.08
2023-05-20T17:34:01.501Z,72.34
2023-05-20T17:36:28.882Z,72.61
2023-05-20T17:38:56.084Z,72.82
2023-05-20T17:41:23.376Z,73.22
2023-05-20T17:43:50.571Z,73.59
2023-05-20T17:46:17.845Z,74.15
2023-05-20T17:48:46.481Z,73.99
2023-05-20T17:51:13.933Z,74.35
2023-05-20T17:53:41.152Z,74.59
2023-05-20T17:56:08.397Z,74.69
2023-05-20T17:58:35.586Z,74.72
2023-05-20T18:01:02.822Z,75.12
2023-05-20T18:03:30.103Z,75.35
2023-05-20T18:05:58.765Z,75.69
2023-05-20T18:08:26.006Z,74.94
2023-05-20T18:10:53.293Z,75.58
2023-05-20T18:13:20.507Z,75.88
2023-05-20T18:15:47.775Z,75.95
2023-05-20T18:18:15.140Z,76.57
2023-05-20T18:20:42.372Z,76.85
2023-05-20T18:23:10.978Z,76.99
2023-05-20T18:25:39.886Z,77.65
2023-05-20T18:28:08.369Z,77.53
2023-05-20T18:30:35.827Z,77.85
2023-05-20T18:33:03.216Z,78.72
2023-05-20T18:35:30.483Z,78.80
2023-05-20T18:37:57.650Z,78.76
2023-05-20T18:40:26.200Z,79.04
2023-05-20T18:42:53.396Z,79.33
2023-05-20T18:45:20.633Z,80.23
2023-05-20T18:47:47.899Z,80.66
2023-05-20T18:50:15.274Z,80.20
2023-05-20T18:52:42.484Z,81.10
2023-05-20T18:55:09.870Z,80.69
2023-05-20T18:57:38.494Z,80.85
2023-05-20T19:00:07.201Z,81.35
2023-05-20T19:02:34.445Z,81.84
2023-05-20T19:05:01.732Z,81.29
2023-05-20T19:07:28.988Z,81.55
2023-05-20T19:09:56.205Z,81.75
2023-05-20T19:12:23.416Z,82.24
2023-05-20T19:14:51.996Z,82.48
2023-05-20T19:17:20.937Z,83.14
2023-05-20T19:19:48.960Z,83.69
2023-05-20T19:22:16.308Z,83.34
2023-05-20T19:24:43.536Z,84.11
2023-05-20T19:27:10.773Z,84.19
2023-05-20T19:29:37.958Z,84.52
2023-05-20T19:32:07.237Z,84.69
2023-05-20T19:34:34.471Z,84.81
2023-05-20T19:37:01.724Z,84.97
2023-05-20T19:39:28.968Z,85.54
2023-05-20T19:41:56.161Z,85.63
2023-05-20T19:44:23.602Z,85.94
2023-05-20T19:46:51.089Z,85.98
2023-05-20T19:49:19.752Z,85.97
2023-05-20T19:51:46.973Z,86.49
2023-05-20T19:54:14.166Z,85.97
2023-05-20T19:56:41.391Z,86.40
2023-05-20T19:59:08.603Z,86.18
2023-05-20T20:01:35.818Z,86.81
2023-05-20T20:04:03.245Z,87.39
2023-05-20T20:06:31.870Z,87.05
2023-05-20T20:08:59.058Z,87.08
2023-05-20T20:11:26.251Z,87.34
2023-05-20T20:13:53.460Z,87.63
2023-05-20T20:16:20.738Z,87.96
2023-05-20T20:18:48.464Z,87.54
2023-05-20T20:21:15.717Z,87.16
2023-05-20T20:23:44.260Z,87.51
2023-05-20T20:26:11.734Z,87.50
2023-05-20T20:28:38.928Z,87.52
2023-05-20T20:31:06.163Z,87.75
2023-05-20T20:33:33.372Z,87.28
2023-05-20T20:36:00.549Z,87.61
2023-05-20T20:38:27.767Z,88.19
2023-05-20T20:40:56.361Z,88.26
2023-05-20T20:43:23.593Z,87.96
2023-05-20T20:45:50.920Z,88.44
2023-05-20T20:48:18.492Z,88.23
2023-05-20T20:50:46.439Z,88.64
2023-05-20T20:53:13.958Z,87.95
2023-05-20T20:55:41.501Z,88.43
2023-05-20T20:58:10.272Z,88.26
2023-05-20T21:00:37.967Z,88.46
2023-05-20T21:03:05.376Z,89.01
2023-05-20T21:05:32.630Z,88.42
2023-05-20T21:07:59.791Z,88.42
2023-05-20T21:10:27.012Z,88.84
2023-05-20T21:12:54.441Z,89.00
2023-05-20T21:15:23.306Z,89.14
2023-05-20T21:17:50.878Z,88.68
2023-05-20T21:20:21.042Z,88.98
2023-05-20T21:22:49.078Z,88.75
2023-05-20T21:25:16.528Z,88.74
2023-05-20T21:27:43.697Z,88.78
2023-05-20T21:30:12.075Z,88.84
2023-05-20T21:32:40.655Z,88.77
2023-05-20T21:35:08.952Z,89.39
2023-05-20T21:37:36.172Z,89.12
2023-05-20T21:40:03.905Z,88.74
2023-05-20T21:42:31.120Z,89.22
2023-05-20T21:44:58.302Z,88.93
2023-05-20T21:47:25.510Z,89.66
2023-05-20T21:49:54.123Z,90.05
2023-05-20T21:52:21.291Z,90.12
2023-05-20T21:54:49.169Z,89.89
2023-05-20T21:57:16.382Z,89.83
2023-05-20T21:59:43.564Z,90.38
2023-05-20T22:02:10.782Z,90.69
2023-05-20T22:04:38.026Z,90.77
2023-05-20T22:07:06.766Z,91.12
2023-05-20T22:09:33.977Z,90.47
2023-05-20T22:12:01.262Z,90.90
2023-05-20T22:14:28.573Z,90.45
2023-05-20T22:16:55.851Z,90.53
2023-05-20T22:19:23.137Z,90.49
2023-05-20T22:21:51.207Z,90.88
2023-05-20T22:24:19.945Z,90.72
2023-05-20T22:26:47.226Z,90.27
2023-05-20T22:29:14.458Z,90.76
2023-05-20T22:31:41.692Z,90.82
2023-05-20T22:34:08.891Z,91.39
2023-05-20T22:36:36.104Z,92.55
2023-05-20T22:39:03.854Z,92.01
2023-05-20T22:41:32.549Z,91.50
2023-05-20T22:43:59.717Z,92.78
2023-05-20T22:46:26.982Z,92.78
2023-05-20T22:48:54.195Z,92.87
2023-05-20T22:51:21.878Z,93.36
2023-05-20T22:53:49.226Z,93.88
2023-05-20T22:56:17.259Z,93.14
2023-05-20T22:58:45.965Z,92.70
2023-05-20T23:01:13.337Z,93.89
2023-05-20T23:03:40.680Z,92.71
2023-05-20T23:06:07.880Z,93.01
2023-05-20T23:08:35.072Z,94.86
2023-05-20T23:11:02.321Z,95.65
2023-05-20T23:13:29.514Z,95.59
2023-05-20T23:15:58.061Z,95.11
2023-05-20T23:18:25.239Z,95.21
2023-05-20T23:20:52.470Z,95.14
2023-05-20T23:23:25.135Z,95.72
2023-05-20T23:25:58.194Z,96.45
2023-05-20T23:28:25.454Z,96.44
2023-05-20T23:30:52.700Z,96.11
2023-05-20T23:33:25.175Z,96.09
2023-05-20T23:35:53.055Z,95.99
2023-05-20T23:38:20.503Z,96.31
2023-05-20T23:40:47.906Z,96.32
2023-05-20T23:43:15.311Z,96.05
2023-05-20T23:45:42.716Z,95.61
2023-05-20T23:48:09.913Z,96.65
2023-05-20T23:50:38.898Z,96.89
2023-05-20T23:53:06.179Z,96.91
2023-05-20T23:55:33.468Z,97.17
2023-05-20T23:58:00.792Z,96.83
